OIIK  Qazvin  Airport

Qazvin, Iran

Add Bookmark
Status
Operational
Latitude Longitude
36° 14' 24" N 50° 2' 49" E
36.240101 50.047100
Local (DST + 5) UTC (GMT + 4)
Mar 31, 2015 10:32 Mar 31, 2015 18:02
Sunrise-Sunset Local UTC
Begin Civil Twilight 06:30 02:00
Sunrise 06:56 02:26
Sunset 07:31 15:01
End Civil Twilight 07:57 15:27
VFR
VFR
MVFR
MVFR
IFR
VFR
LIFR
VFR
Unknown
Unavailable

Current Weather

METAR Observed VFR
OIIK 311700Z 00000KT 9999 FEW040 09/04 Q1012 Tue, Mar 31, 2015 @ 17:00 UTC
(1 Hour, 2 Minutes ago)
Visual Flight Rules
Wind Visibility Clouds Conditions
Calm 10 km or more
  • Few at 4,000' AGL
  • No significant weather
Temperatures Readings Precipitation
Current Temp 9°C (48°F)
Dewpoint 4°C (39°F)
Humidity 71%
Altimeter 29.88"Hg
Sea Level Pressure 1012mb
Field Elevation 4192.91'
None Recorded

Additional weather within a 92.6km radius of OIIK

Map ICAO Location
OIIP 87km S (126°)
VFR
VFR
MVFR
MVFR
IFR
VFR
LIFR
VFR
Unknown
Unavailable
-
-

CheckWX.com is intended as a tool to help pilots better visualize weather data. It is not intended as a substitute for an official weather briefing obtained from a Flight Service Station. CheckWX.com does not meet the FAA requirements for an official pre-flight weather briefing. Therefore, it's important that pilots still call and obtain an official FSS pre-flight weather briefing.